X  Close Metar Aviation Weather Data     KMRH Michael J. Smith Field
Temperature
66°F Temperature
50°F Dewpoint
56% Humidity



Wind
21 MPH
34 KM/H
9 M/S
18 KTS



360°
North
Current Conditions

Mostly Cloudy Mostly Cloudy
Pressure 1015.22 (hPa) - 29.98 (inHg)
Visibility 9.9 (mile) - 16 (km)
Airport
Airport-code KMRH

Location: Michael J. Smith Field
Distance: 7 (mi)

Metar:
KMRH 301958Z AUTO 36018G26KT 10SM BKN042 19/10 A2998 RMK AO2 PK WND 33026/1949 SLP151 I1000 T01940100

Time: 30-10-2020 15:58 EDT